Time;durP1;ratioP1;P1;durP2;ratioP2;P2;SDS_P1;SDS_P2;PMS_P1;PMS_P2;Temp;Humidity;BMP_temperature;BMP_pressure;BME280_temperature;BME280_humidity;BME280_pressure;Samples;Min_cycle;Max_cycle;Signal;HPM_P1;HPM_P2
2022/06/08 00:01:50;;;;;;;4.70;3.17;;;;;;;16.41;100.00;99391.42;1698796;82;21136;-63
2022/06/08 00:04:22;;;;;;;5.85;3.30;;;;;;;16.34;100.00;99391.89;1693080;82;20994;-63
2022/06/08 00:06:46;;;;;;;6.85;3.40;;;;;;;16.28;100.00;99393.17;1706174;82;21548;-63
2022/06/08 00:09:13;;;;;;;;;;;;;;;16.26;100.00;99402.27;1698300;82;21005;-63
2022/06/08 00:11:39;;;;;;;6.95;2.80;;;;;;;16.27;100.00;99397.03;1701933;82;20169;-64
2022/06/08 00:14:05;;;;;;;4.12;3.17;;;;;;;16.20;100.00;99399.43;1695460;83;21037;-64
2022/06/08 00:16:33;;;;;;;4.47;3.15;;;;;;;16.18;100.00;99401.70;1710801;82;21076;-63
2022/06/08 00:18:59;;;;;;;6.92;3.70;;;;;;;16.14;100.00;99404.01;1726170;82;20976;-64
2022/06/08 00:21:27;;;;;;;5.35;3.35;;;;;;;16.08;100.00;99400.60;1693517;83;21062;-63
2022/06/08 00:23:53;;;;;;;;;;;;;;;16.04;100.00;99398.23;1710601;82;21007;-64
2022/06/08 00:26:19;;;;;;;3.67;2.90;;;;;;;16.02;100.00;99399.66;1689861;83;20130;-65
2022/06/08 00:30:29;;;;;;;6.17;3.15;;;;;;;16.02;100.00;99401.84;1781145;79;23298;-64
2022/06/08 00:32:58;;;;;;;5.12;3.00;;;;;;;15.88;100.00;99393.70;1727571;82;21063;-64
2022/06/08 00:35:24;;;;;;;;;;;;;;;15.84;100.00;99399.56;1729958;81;21132;-65
2022/06/08 00:37:52;;;;;;;5.92;2.95;;;;;;;15.79;100.00;99396.16;1728540;82;20124;-64
2022/06/08 00:40:23;;;;;;;6.55;3.10;;;;;;;15.67;100.00;99393.17;1740625;82;21449;-64
2022/06/08 00:42:51;;;;;;;5.75;2.58;;;;;;;15.67;100.00;99399.47;1726948;82;21039;-64
2022/06/08 00:45:20;;;;;;;6.00;3.00;;;;;;;15.71;100.00;99393.61;1732037;80;21014;-66
2022/06/08 00:47:54;;;;;;;4.20;2.90;;;;;;;15.74;100.00;99394.34;1736581;81;20959;-65
2022/06/08 00:50:32;;;;;;;4.65;3.02;;;;;;;15.74;100.00;99389.41;1729809;82;21125;-66
2022/06/08 00:52:59;;;;;;;6.40;3.00;;;;;;;15.70;100.00;99387.05;1728577;81;21156;-63
2022/06/08 00:55:28;;;;;;;6.03;2.98;;;;;;;15.66;100.00;99390.20;1728748;82;21052;-64
2022/06/08 00:58:08;;;;;;;4.40;2.85;;;;;;;15.62;100.00;99390.02;1733180;82;21003;-63
2022/06/08 01:00:37;;;;;;;5.60;2.80;;;;;;;15.62;100.00;99389.20;1720297;82;21569;-63
2022/06/08 01:03:06;;;;;;;5.45;2.60;;;;;;;15.64;100.00;99384.20;1722045;83;20981;-63
2022/06/08 01:06:04;;;;;;;4.28;2.70;;;;;;;15.66;100.00;99382.75;1727643;82;21039;-63
2022/06/08 01:08:44;;;;;;;4.30;2.77;;;;;;;15.65;100.00;99378.41;1731361;81;20998;-64
2022/06/08 01:11:43;;;;;;;4.37;2.70;;;;;;;15.58;100.00;99385.45;1731630;80;21077;-63
2022/06/08 01:14:13;;;;;;;4.72;2.85;;;;;;;15.51;100.00;99382.34;1726819;82;21030;-63
2022/06/08 01:16:44;;;;;;;3.52;2.80;;;;;;;15.42;100.00;99389.91;1733288;82;21568;-63
2022/06/08 01:19:11;;;;;;;3.98;2.95;;;;;;;15.38;100.00;99387.53;1705652;83;21608;-64
2022/06/08 01:21:46;;;;;;;5.42;3.10;;;;;;;15.38;100.00;99382.05;1736175;81;21054;-63
2022/06/08 01:24:14;;;;;;;4.12;3.10;;;;;;;15.38;100.00;99383.98;1731391;82;21633;-64
2022/06/08 01:26:57;;;;;;;4.83;3.58;;;;;;;15.36;100.00;99384.86;1728765;82;21552;-64
2022/06/08 01:29:35;;;;;;;6.30;3.22;;;;;;;15.31;100.00;99388.53;1726377;82;21011;-64
2022/06/08 01:32:23;;;;;;;5.80;3.70;;;;;;;15.27;100.00;99396.31;1686272;82;21006;-64
2022/06/08 01:35:01;;;;;;;5.35;3.75;;;;;;;15.23;100.00;99386.52;1714880;82;21733;-64
2022/06/08 01:38:01;;;;;;;6.28;3.95;;;;;;;15.23;100.00;99396.70;1723801;82;20979;-64
2022/06/08 01:49:07;;;;;;;6.17;4.37;;;;;;;15.09;100.00;99391.83;1701718;82;21573;-64
2022/06/08 01:52:02;;;;;;;6.42;4.75;;;;;;;14.93;100.00;99385.88;1703082;82;21132;-64
2022/06/08 01:54:55;;;;;;;6.87;4.35;;;;;;;14.91;100.00;99394.39;1713930;82;21015;-64
2022/06/08 01:58:00;;;;;;;5.80;4.60;;;;;;;14.93;100.00;99392.17;1689566;83;20997;-64
2022/06/08 02:00:35;;;;;;;6.85;4.30;;;;;;;14.93;100.00;99396.28;1718720;82;21614;-64
2022/06/08 02:03:31;;;;;;;7.92;4.78;;;;;;;14.88;100.00;99393.64;1719623;82;21035;-64
2022/06/08 02:06:35;;;;;;;7.65;4.03;;;;;;;14.84;100.00;99395.38;1712670;82;21011;-64
2022/06/08 02:09:23;;;;;;;7.15;3.83;;;;;;;14.74;100.00;99376.97;1717830;83;21032;-64
2022/06/08 02:12:02;;;;;;;5.58;3.90;;;;;;;14.88;100.00;99395.02;1706353;82;21027;-64
2022/06/08 02:14:37;;;;;;;4.97;3.98;;;;;;;14.89;100.00;99399.94;1710378;82;21003;-64
2022/06/08 02:17:26;;;;;;;8.23;4.00;;;;;;;14.88;100.00;99401.05;1714132;82;21419;-64
2022/06/08 02:19:59;;;;;;;5.00;3.65;;;;;;;14.85;100.00;99403.04;1694767;82;21027;-64
2022/06/08 02:22:37;;;;;;;4.33;3.45;;;;;;;14.82;100.00;99400.36;1666163;83;21468;-64
2022/06/08 02:25:26;;;;;;;6.15;3.27;;;;;;;14.84;100.00;99409.66;1718161;81;21106;-65
2022/06/08 02:28:03;;;;;;;4.12;3.27;;;;;;;14.89;100.00;99403.49;1738089;82;21039;-65
2022/06/08 02:30:46;;;;;;;5.47;3.02;;;;;;;14.93;100.00;99406.43;1710969;82;21096;-64
2022/06/08 02:36:22;;;;;;;4.60;3.22;;;;;;;14.99;100.00;99407.93;1693127;83;21109;-64
2022/06/08 02:38:57;;;;;;;5.62;3.20;;;;;;;14.97;100.00;99408.00;1710440;82;21028;-65
2022/06/08 02:41:23;;;;;;;5.67;3.52;;;;;;;14.97;100.00;99410.73;1697744;83;21610;-64
2022/06/08 02:43:53;;;;;;;;;;;;;;;14.98;100.00;99406.33;1724511;82;20971;-64
2022/06/08 02:46:33;;;;;;;4.50;2.72;;;;;;;15.07;100.00;99409.95;1703724;82;20106;-64
2022/06/08 02:49:07;;;;;;;5.25;3.20;;;;;;;15.12;100.00;99421.36;1660489;82;21720;-65
2022/06/08 02:51:35;;;;;;;4.40;3.20;;;;;;;15.20;100.00;99415.13;1715313;82;21512;-64
2022/06/08 02:54:05;;;;;;;5.17;3.50;;;;;;;15.25;100.00;99421.87;1708551;82;21101;-64
2022/06/08 02:56:49;;;;;;;3.90;3.17;;;;;;;15.29;100.00;99420.95;1712353;82;21094;-64
2022/06/08 02:59:55;;;;;;;6.00;3.08;;;;;;;15.38;100.00;99413.59;1706315;82;21017;-65
2022/06/08 03:02:38;;;;;;;5.50;3.20;;;;;;;15.53;100.00;99417.93;1716051;82;21019;-65
2022/06/08 03:05:31;;;;;;;5.15;3.30;;;;;;;15.69;100.00;99408.77;1692214;84;21092;-64
2022/06/08 03:08:06;;;;;;;6.08;3.40;;;;;;;15.81;100.00;99414.48;1709364;82;20954;-65
2022/06/08 03:10:36;;;;;;;4.47;3.05;;;;;;;15.90;100.00;99409.88;1715450;82;21067;-65
2022/06/08 03:13:11;;;;;;;4.85;2.95;;;;;;;16.02;100.00;99415.57;1705523;82;20983;-64
2022/06/08 03:15:39;;;;;;;6.67;3.10;;;;;;;16.14;100.00;99411.69;1715146;81;21127;-65
2022/06/08 03:18:07;;;;;;;5.55;3.10;;;;;;;16.33;100.00;99406.74;1713028;82;20955;-64
2022/06/08 03:20:34;;;;;;;5.33;3.27;;;;;;;16.57;100.00;99399.52;1717758;82;21036;-64
2022/06/08 03:23:01;;;;;;;5.20;3.00;;;;;;;16.75;100.00;99399.81;1721608;82;21011;-64
2022/06/08 03:25:29;;;;;;;4.67;3.02;;;;;;;16.87;100.00;99399.98;1707571;82;21109;-64
2022/06/08 03:27:55;;;;;;;6.35;2.95;;;;;;;17.12;100.00;99400.32;1713821;83;21541;-64
2022/06/08 03:30:23;;;;;;;4.90;2.70;;;;;;;17.45;100.00;99397.34;1701155;83;20999;-65
2022/06/08 03:32:50;;;;;;;4.80;2.72;;;;;;;17.85;100.00;99396.58;1724400;82;21508;-63
2022/06/08 03:35:17;;;;;;;6.33;2.70;;;;;;;18.32;100.00;99390.48;1721583;82;21074;-64
2022/06/08 03:37:44;;;;;;;3.70;2.52;;;;;;;18.75;100.00;99388.91;1717666;82;21033;-64
2022/06/08 03:40:13;;;;;;;4.37;2.83;;;;;;;19.10;100.00;99388.91;1721415;81;20991;-63
2022/06/08 03:42:39;;;;;;;6.65;2.77;;;;;;;19.39;100.00;99387.45;1722022;83;21029;-64
2022/06/08 03:45:07;;;;;;;4.60;2.72;;;;;;;19.66;100.00;99388.84;1723102;82;21653;-63
2022/06/08 03:47:37;;;;;;;3.47;2.40;;;;;;;19.97;100.00;99388.38;1728038;82;20936;-64
2022/06/08 03:50:06;;;;;;;5.10;2.25;;;;;;;20.39;100.00;99389.03;1680771;84;21106;-64
2022/06/08 03:52:36;;;;;;;4.40;2.30;;;;;;;20.78;100.00;99376.46;1667419;85;21391;-64
2022/06/08 03:55:03;;;;;;;5.17;2.17;;;;;;;21.09;100.00;99384.12;1664074;85;21564;-64
2022/06/08 03:57:30;;;;;;;4.55;2.00;;;;;;;21.30;100.00;99382.02;1721508;82;21039;-64
2022/06/08 04:00:00;;;;;;;3.37;1.70;;;;;;;21.51;100.00;99380.43;1722452;82;21106;-64
2022/06/08 04:02:28;;;;;;;3.52;2.10;;;;;;;21.59;100.00;99379.48;1723356;82;21474;-63
2022/06/08 04:04:55;;;;;;;3.52;1.90;;;;;;;21.67;100.00;99382.69;1677070;85;21057;-63
2022/06/08 04:07:23;;;;;;;3.12;1.87;;;;;;;21.75;100.00;99383.89;1686590;84;21001;-63
2022/06/08 04:09:51;;;;;;;4.92;1.82;;;;;;;21.83;100.00;99382.94;1723802;81;21007;-63
2022/06/08 04:12:22;;;;;;;2.85;1.87;;;;;;;22.02;100.00;99385.06;1724050;82;21552;-62
2022/06/08 04:14:49;;;;;;;2.67;1.85;;;;;;;22.35;100.00;99383.34;1698290;82;21137;-63
2022/06/08 04:17:16;;;;;;;3.85;1.95;;;;;;;22.78;100.00;99388.76;1722745;82;20995;-64
2022/06/08 04:19:44;;;;;;;5.03;2.10;;;;;;;23.20;100.00;99375.02;1722799;82;21046;-64
2022/06/08 04:22:12;;;;;;;4.67;2.12;;;;;;;23.68;100.00;99377.84;1715617;82;21604;-64
2022/06/08 04:24:39;;;;;;;2.87;2.22;;;;;;;24.18;100.00;99389.33;1719883;82;21058;-64
2022/06/08 04:27:06;;;;;;;4.05;2.45;;;;;;;24.41;100.00;99387.91;1712189;82;21392;-64
2022/06/08 04:29:34;;;;;;;3.27;2.30;;;;;;;24.53;100.00;99389.13;1722707;82;21039;-64
2022/06/08 04:32:04;;;;;;;3.98;2.22;;;;;;;24.61;100.00;99388.66;1690220;83;21035;-63
2022/06/08 04:34:31;;;;;;;3.70;2.00;;;;;;;24.65;100.00;99396.47;1717723;81;20985;-64
2022/06/08 04:36:58;;;;;;;4.83;1.98;;;;;;;24.78;100.00;99387.53;1719588;82;21084;-64
2022/06/08 04:39:27;;;;;;;3.55;2.00;;;;;;;24.96;100.00;99386.44;1716063;82;21496;-64
2022/06/08 04:41:57;;;;;;;4.30;2.12;;;;;;;25.10;100.00;99376.09;1722464;81;21045;-63
2022/06/08 04:44:26;;;;;;;3.00;2.12;;;;;;;25.20;100.00;99383.20;1720269;81;20994;-64
2022/06/08 04:46:53;;;;;;;3.30;2.22;;;;;;;25.12;100.00;99380.67;1724090;82;21025;-64
2022/06/08 04:49:21;;;;;;;3.08;1.98;;;;;;;25.08;100.00;99380.62;1718872;82;21478;-64
2022/06/08 04:51:48;;;;;;;3.35;2.20;;;;;;;25.12;100.00;99382.88;1695196;83;21506;-64
2022/06/08 04:54:16;;;;;;;2.87;1.80;;;;;;;25.20;100.00;99390.16;1726999;81;20999;-64
2022/06/08 04:56:43;;;;;;;5.78;1.90;;;;;;;25.39;100.00;99388.41;1726461;81;21070;-64
2022/06/08 04:59:09;;;;;;;2.65;1.52;;;;;;;25.55;100.00;99392.63;1720193;83;20995;-64
2022/06/08 05:01:38;;;;;;;4.85;1.87;;;;;;;25.83;100.00;99394.13;1722821;82;21110;-63
2022/06/08 05:04:06;;;;;;;4.00;2.30;;;;;;;26.02;100.00;99391.96;1723770;81;20935;-65
2022/06/08 05:06:33;;;;;;;4.70;2.50;;;;;;;26.19;100.00;99387.77;1732231;81;21540;-65
2022/06/08 05:09:00;;;;;;;6.33;3.10;;;;;;;26.50;100.00;99387.86;1713958;82;21909;-65
2022/06/08 05:11:27;;;;;;;8.30;3.27;;;;;;;26.68;100.00;99390.98;1714423;81;21058;-64
2022/06/08 05:13:54;;;;;;;5.62;3.30;;;;;;;26.93;100.00;99394.56;1715044;81;21004;-64
2022/06/08 05:16:20;;;;;;;5.47;2.00;;;;;;;27.21;100.00;99396.13;1714167;82;21097;-63
2022/06/08 05:18:49;;;;;;;5.75;2.42;;;;;;;27.30;91.16;99386.02;1717120;82;21003;-64
2022/06/08 05:21:17;;;;;;;4.80;1.82;;;;;;;27.24;87.78;99392.58;1714435;81;21368;-64
2022/06/08 05:23:46;;;;;;;3.62;1.90;;;;;;;27.21;93.09;99400.33;1715550;81;20996;-62
2022/06/08 05:26:14;;;;;;;2.90;1.60;;;;;;;27.21;91.33;99396.13;1716076;81;21098;-63
2022/06/08 05:28:42;;;;;;;4.25;1.35;;;;;;;27.29;97.37;99393.59;1718492;82;20963;-63
2022/06/08 05:31:10;;;;;;;2.65;1.32;;;;;;;27.61;91.24;99393.17;1725188;81;21042;-63
2022/06/08 05:33:38;;;;;;;2.70;1.37;;;;;;;28.02;81.42;99390.10;1720350;82;21471;-64
2022/06/08 05:36:12;;;;;;;1.90;1.40;;;;;;;28.40;81.06;99394.97;1720184;82;21097;-63
2022/06/08 05:38:39;;;;;;;2.87;1.60;;;;;;;28.82;77.84;99395.59;1711936;82;21019;-63
2022/06/08 05:41:06;;;;;;;2.85;1.20;;;;;;;29.30;77.42;99394.50;1671877;85;21491;-64
2022/06/08 05:43:34;;;;;;;1.92;1.17;;;;;;;29.78;71.22;99383.49;1713298;82;20983;-64
2022/06/08 05:46:01;;;;;;;2.55;0.90;;;;;;;29.98;67.11;99387.41;1716679;82;21053;-64
2022/06/08 05:48:28;;;;;;;3.75;1.07;;;;;;;30.05;69.60;99381.75;1730251;82;21380;-64
2022/06/08 05:50:56;;;;;;;3.90;1.07;;;;;;;30.16;63.52;99383.69;1710566;82;21062;-63
2022/06/08 05:53:24;;;;;;;1.57;0.60;;;;;;;30.15;61.98;99385.69;1663412;85;21001;-63
2022/06/08 05:55:51;;;;;;;3.15;0.90;;;;;;;30.37;59.01;99376.50;1717511;82;21045;-63
2022/06/08 05:58:18;;;;;;;2.37;0.98;;;;;;;30.64;56.65;99380.94;1726663;82;21534;-63
2022/06/08 06:00:46;;;;;;;3.27;0.85;;;;;;;30.55;55.58;99375.79;1724687;82;21500;-64
2022/06/08 06:03:15;;;;;;;1.85;1.02;;;;;;;30.47;54.77;99378.45;1693717;84;21050;-63
2022/06/08 06:05:41;;;;;;;1.40;0.72;;;;;;;30.58;55.97;99381.98;1720868;82;21554;-64
2022/06/08 06:08:11;;;;;;;3.08;0.80;;;;;;;30.72;54.69;99376.23;1726628;82;20987;-63
2022/06/08 06:10:41;;;;;;;3.47;1.00;;;;;;;31.02;53.88;99376.37;1734069;80;21563;-63
2022/06/08 06:13:08;;;;;;;3.17;0.88;;;;;;;31.41;54.27;99374.53;1721726;83;20983;-64
2022/06/08 06:15:37;;;;;;;3.65;0.88;;;;;;;31.83;54.32;99373.20;1720301;82;21055;-64
2022/06/08 06:18:05;;;;;;;2.12;0.95;;;;;;;32.18;50.43;99372.52;1719794;82;20993;-61
2022/06/08 06:20:32;;;;;;;1.12;0.80;;;;;;;32.52;48.34;99378.81;1694348;82;21097;-62
2022/06/08 06:23:00;;;;;;;1.32;0.62;;;;;;;32.83;46.73;99374.67;1712820;82;21530;-62
2022/06/08 06:25:29;;;;;;;3.30;0.70;;;;;;;33.05;44.55;99352.52;1705890;82;21664;-61
2022/06/08 06:28:08;;;;;;;1.75;0.75;;;;;;;33.45;44.24;99373.08;1716544;82;20991;-63
2022/06/08 06:30:53;;;;;;;3.08;0.80;;;;;;;33.66;44.19;99370.48;1714569;82;21125;-63
2022/06/08 06:33:21;;;;;;;2.75;0.90;;;;;;;33.87;42.47;99375.02;1720332;82;21029;-63
2022/06/08 06:35:50;;;;;;;2.83;0.62;;;;;;;33.96;41.86;99368.78;1707875;83;21126;-63
2022/06/08 06:38:17;;;;;;;2.27;1.00;;;;;;;33.72;43.28;99352.59;1711761;82;20959;-64
2022/06/08 06:40:44;;;;;;;5.65;0.93;;;;;;;33.71;42.33;99371.36;1712612;82;21059;-64
2022/06/08 06:43:11;;;;;;;2.85;0.85;;;;;;;33.88;42.68;99363.91;1719923;82;21442;-63
2022/06/08 06:45:40;;;;;;;2.08;0.70;;;;;;;34.10;41.91;99360.59;1715525;82;21067;-62
2022/06/08 06:48:25;;;;;;;3.50;0.80;;;;;;;34.21;39.66;99364.80;1704504;82;21428;-62
2022/06/08 06:50:53;;;;;;;1.52;0.70;;;;;;;34.45;38.90;99361.97;1719690;81;21031;-62
2022/06/08 06:53:20;;;;;;;1.27;0.53;;;;;;;34.59;38.03;99360.81;1693639;82;20959;-64
2022/06/08 06:55:51;;;;;;;2.65;0.70;;;;;;;34.70;36.11;99365.61;1715930;82;21055;-63
2022/06/08 06:58:32;;;;;;;2.17;0.70;;;;;;;34.93;37.63;99363.20;1715860;82;20968;-63
2022/06/08 07:00:59;;;;;;;2.40;0.70;;;;;;;35.20;36.83;99356.59;1666045;84;21093;-64
2022/06/08 07:03:25;;;;;;;1.47;0.70;;;;;;;35.24;35.08;99362.16;1714886;82;21004;-64
2022/06/08 07:05:53;;;;;;;1.45;0.50;;;;;;;35.26;37.32;99361.88;1701031;82;21019;-63
2022/06/08 07:08:19;;;;;;;2.30;0.80;;;;;;;35.32;33.67;99357.24;1716924;82;20936;-63
2022/06/08 07:11:32;;;;;;;1.57;0.70;;;;;;;35.28;33.89;99357.20;1718018;81;21047;-63
2022/06/08 07:13:19;;;;;;;1.32;0.50;;;;;;;35.35;35.35;99360.62;1703268;82;21008;-63
2022/06/08 07:15:45;;;;;;;2.22;0.60;;;;;;;35.52;33.16;99358.50;1707766;82;21051;-63
2022/06/08 07:18:15;;;;;;;3.02;0.70;;;;;;;35.56;33.35;99353.53;1708380;82;20968;-63
2022/06/08 07:20:43;;;;;;;1.55;0.50;;;;;;;35.43;32.25;99350.66;1706924;82;21934;-64
2022/06/08 07:23:09;;;;;;;1.75;0.60;;;;;;;35.17;34.55;99351.05;1684107;82;20990;-64
2022/06/08 07:25:37;;;;;;;3.30;0.65;;;;;;;34.95;33.64;99350.80;1675526;84;21589;-64
2022/06/08 07:28:04;;;;;;;2.67;0.60;;;;;;;34.60;33.14;99348.28;1662213;85;20992;-64
2022/06/08 07:30:31;;;;;;;1.92;0.50;;;;;;;34.36;35.43;99351.12;1685764;83;21649;-64
2022/06/08 07:32:57;;;;;;;1.60;0.45;;;;;;;34.30;36.35;99350.04;1674122;84;20967;-62
2022/06/08 07:35:24;;;;;;;1.20;0.50;;;;;;;34.37;34.30;99355.52;1688708;82;21035;-62
2022/06/08 07:37:51;;;;;;;2.25;0.50;;;;;;;34.58;33.82;99352.15;1686418;83;21000;-63
2022/06/08 07:40:19;;;;;;;1.55;0.60;;;;;;;34.70;35.06;99352.09;1684544;83;21086;-64
2022/06/08 07:42:46;;;;;;;1.20;0.55;;;;;;;34.85;34.30;99347.03;1686422;83;20992;-64
2022/06/08 07:45:12;;;;;;;1.77;0.70;;;;;;;34.84;32.92;99351.09;1686495;82;21079;-63
2022/06/08 07:50:26;;;;;;;0.90;0.42;;;;;;;34.47;29.29;99357.30;1715953;82;21494;-63
2022/06/08 07:52:52;;;;;;;1.67;0.80;;;;;;;34.28;28.87;99356.14;1718370;82;21023;-62
2022/06/08 07:55:21;;;;;;;1.40;0.60;;;;;;;34.26;28.92;99350.77;1713433;82;21082;-63
2022/06/08 07:57:48;;;;;;;2.67;0.57;;;;;;;34.52;28.21;99353.92;1715977;82;20969;-63
2022/06/08 08:00:16;;;;;;;3.15;0.75;;;;;;;34.81;27.53;99344.92;1715129;82;21042;-63
2022/06/08 08:02:42;;;;;;;1.42;0.70;;;;;;;34.80;28.51;99353.22;1717588;82;20964;-64
2022/06/08 08:05:11;;;;;;;2.87;0.60;;;;;;;34.95;28.58;99354.43;1708093;82;21550;-63
2022/06/08 08:07:39;;;;;;;1.60;0.60;;;;;;;35.19;29.00;99362.08;1716765;82;21047;-62
2022/06/08 08:10:09;;;;;;;1.77;0.70;;;;;;;35.41;28.75;99353.16;1717019;82;21019;-61
2022/06/08 08:12:36;;;;;;;2.30;0.50;;;;;;;35.62;27.99;99358.83;1705689;82;21000;-61
2022/06/08 08:15:04;;;;;;;1.98;0.50;;;;;;;35.72;27.03;99353.47;1709201;82;21018;-61
2022/06/08 08:17:30;;;;;;;2.02;0.70;;;;;;;35.70;27.14;99351.72;1715599;82;21058;-62
2022/06/08 08:19:56;;;;;;;1.00;0.40;;;;;;;35.75;26.96;99363.89;1709683;83;20987;-62
2022/06/08 08:22:23;;;;;;;2.12;0.60;;;;;;;35.93;27.71;99354.84;1706963;82;21015;-64
2022/06/08 08:24:49;;;;;;;1.05;0.50;;;;;;;35.70;26.55;99357.38;1707696;82;21007;-63
2022/06/08 08:27:17;;;;;;;1.42;0.60;;;;;;;35.60;26.74;99355.67;1677993;84;21493;-62
2022/06/08 08:29:44;;;;;;;0.90;0.42;;;;;;;35.49;27.54;99359.41;1715883;82;21486;-63
2022/06/08 08:32:11;;;;;;;2.02;0.70;;;;;;;35.22;27.83;99353.30;1722257;82;20999;-63
2022/06/08 08:34:38;;;;;;;2.37;0.98;;;;;;;35.16;27.10;99354.48;1724560;81;20998;-63
2022/06/08 08:37:04;;;;;;;1.50;0.50;;;;;;;34.58;27.14;99349.97;1728795;82;21039;-62
2022/06/08 08:39:31;;;;;;;2.35;0.68;;;;;;;34.36;28.43;99346.88;1730065;81;21008;-62
2022/06/08 08:44:47;;;;;;;1.72;0.60;;;;;;;34.82;29.69;99342.89;1725317;81;21035;-63
2022/06/08 08:47:40;;;;;;;1.82;0.68;;;;;;;35.11;28.66;99340.08;1725821;82;20967;-62
2022/06/08 08:50:42;;;;;;;3.22;0.53;;;;;;;35.21;28.20;99337.59;1698397;83;21106;-62
2022/06/08 08:53:30;;;;;;;2.70;0.60;;;;;;;34.82;28.69;99333.80;1640874;83;20986;-62
2022/06/08 08:56:03;;;;;;;2.22;1.00;;;;;;;34.05;28.38;99332.89;1690162;83;21644;-62
2022/06/08 08:58:36;;;;;;;1.82;0.90;;;;;;;33.40;30.55;99340.55;1670184;85;20975;-62
2022/06/08 09:01:17;;;;;;;3.05;0.90;;;;;;;32.85;31.42;99337.58;1693377;83;21634;-62
2022/06/08 09:03:58;;;;;;;2.47;0.60;;;;;;;32.41;32.14;99337.34;1701860;83;21477;-61
2022/06/08 09:06:30;;;;;;;1.55;0.70;;;;;;;32.00;31.83;99332.73;1696362;82;21568;-60
2022/06/08 09:09:00;;;;;;;1.67;0.65;;;;;;;31.50;30.89;99328.99;1651764;85;21609;-61
2022/06/08 09:11:39;;;;;;;1.12;0.60;;;;;;;30.96;32.87;99331.63;1672574;85;21555;-62
2022/06/08 09:14:23;;;;;;;2.45;0.88;;;;;;;30.94;32.71;99324.83;1677686;85;21053;-63
2022/06/08 09:17:14;;;;;;;2.85;0.62;;;;;;;31.00;33.88;99329.60;1678640;84;21057;-65
2022/06/08 09:19:48;;;;;;;2.17;0.80;;;;;;;30.89;34.27;99323.91;1678571;84;21023;-62
2022/06/08 09:22:22;;;;;;;4.35;0.65;;;;;;;31.06;35.88;99327.95;1678798;84;21092;-61
2022/06/08 09:25:03;;;;;;;2.15;0.80;;;;;;;31.14;33.96;99323.65;1693082;84;21514;-63
2022/06/08 09:27:42;;;;;;;1.35;0.70;;;;;;;31.19;35.53;99323.17;1679878;84;21063;-63
2022/06/08 09:30:21;;;;;;;1.70;0.75;;;;;;;31.24;34.39;99319.91;1678760;84;21502;-63
2022/06/08 09:33:00;;;;;;;2.67;0.75;;;;;;;31.16;34.42;99309.35;1651952;85;21016;-62
2022/06/08 09:35:35;;;;;;;3.60;0.80;;;;;;;31.13;34.74;99316.42;1677033;84;21540;-63
2022/06/08 09:38:12;;;;;;;1.32;0.70;;;;;;;31.11;34.26;99313.25;1709399;83;21478;-63
2022/06/08 09:41:08;;;;;;;6.22;0.80;;;;;;;30.94;34.81;99308.77;1681273;83;21533;-63
2022/06/08 09:44:00;;;;;;;2.47;0.55;;;;;;;30.69;36.07;99308.84;1707372;82;21027;-64
2022/06/08 09:53:01;;;;;;;2.47;0.80;;;;;;;30.09;36.66;99289.11;1724334;81;21493;-64
2022/06/08 09:56:00;;;;;;;6.72;1.00;;;;;;;30.31;36.27;99306.57;1726874;81;21472;-66
2022/06/08 09:59:13;;;;;;;1.80;0.80;;;;;;;30.27;35.79;99311.41;1689266;84;21069;-61
2022/06/08 10:01:56;;;;;;;3.47;0.62;;;;;;;30.01;34.56;99306.59;1721535;81;21613;-60
2022/06/08 10:04:49;;;;;;;2.02;0.70;;;;;;;29.68;35.25;99296.00;1727956;81;21512;-62
2022/06/08 10:07:22;;;;;;;1.87;0.78;;;;;;;29.74;36.37;99291.54;1724658;83;21043;-61
2022/06/08 10:09:58;;;;;;;3.12;1.07;;;;;;;29.72;36.68;99273.53;1719004;82;21448;-61
2022/06/08 10:12:51;;;;;;;3.17;0.90;;;;;;;29.96;37.14;99291.63;1701064;81;21058;-62
2022/06/08 10:15:46;;;;;;;3.60;0.93;;;;;;;30.06;37.58;99287.93;1720480;81;21514;-62
2022/06/08 10:18:17;;;;;;;;;;;;;;;30.06;36.28;99287.93;1712202;83;21062;-62
2022/06/08 10:20:55;;;;;;;2.60;0.80;;;;;;;29.96;36.64;99285.20;1720441;82;20113;-61
2022/06/08 10:23:44;;;;;;;4.17;0.90;;;;;;;29.76;36.56;99280.69;1721564;81;21046;-61
2022/06/08 10:26:34;;;;;;;2.58;0.75;;;;;;;29.63;36.72;99280.39;1722325;82;21081;-61
2022/06/08 10:29:27;;;;;;;3.35;0.70;;;;;;;29.52;35.76;99280.25;1719304;81;20976;-63
2022/06/08 10:32:14;;;;;;;2.08;0.80;;;;;;;29.31;35.58;99274.76;1720047;82;21146;-61
2022/06/08 10:34:41;;;;;;;6.83;0.93;;;;;;;29.17;36.53;99272.80;1737962;82;21542;-61
2022/06/08 10:37:30;;;;;;;1.82;0.78;;;;;;;29.21;37.71;99274.18;1703865;82;21039;-60
2022/06/08 10:39:57;;;;;;;2.60;0.70;;;;;;;29.31;36.66;99267.75;1691292;82;21066;-61
2022/06/08 10:42:40;;;;;;;2.02;0.68;;;;;;;29.40;36.96;99271.73;1703493;83;20999;-61
2022/06/08 10:45:33;;;;;;;2.55;0.78;;;;;;;29.49;38.14;99269.26;1693317;82;21078;-62
2022/06/08 10:48:15;;;;;;;2.27;0.60;;;;;;;29.55;37.31;99260.59;1676588;85;21696;-62
2022/06/08 10:50:47;;;;;;;3.67;2.12;;;;;;;29.66;37.04;99257.72;1687615;83;21027;-60
2022/06/08 10:56:33;;;;;;;1.27;0.60;;;;;;;30.02;37.83;99249.88;1670766;83;21039;-61
2022/06/08 10:59:12;;;;;;;1.45;0.90;;;;;;;30.13;37.12;99251.38;1708677;82;21019;-60
2022/06/08 11:02:03;;;;;;;2.22;0.80;;;;;;;30.19;36.59;99250.92;1671412;82;21458;-60
2022/06/08 11:04:39;;;;;;;1.07;0.68;;;;;;;30.23;35.55;99253.09;1678183;83;21525;-60
2022/06/08 11:07:10;;;;;;;2.05;1.40;;;;;;;30.25;36.94;99250.69;1671881;83;21033;-61
2022/06/08 11:09:55;;;;;;;1.32;0.80;;;;;;;30.31;35.34;99251.82;1707000;84;21030;-61
2022/06/08 11:12:51;;;;;;;3.35;0.93;;;;;;;30.29;35.27;99255.66;1713819;82;21054;-62
2022/06/08 11:15:47;;;;;;;2.00;1.60;;;;;;;30.41;35.50;99252.32;1704967;82;21157;-61
2022/06/08 11:18:44;;;;;;;1.00;0.57;;;;;;;30.51;34.97;99254.25;1713556;82;21043;-61
2022/06/08 11:21:41;;;;;;;1.50;0.50;;;;;;;30.37;35.20;99253.77;1718134;82;21137;-61
2022/06/08 11:24:36;;;;;;;3.02;0.78;;;;;;;30.23;34.58;99256.70;1697333;83;21091;-61
2022/06/08 11:27:25;;;;;;;2.05;0.70;;;;;;;30.03;34.37;99252.28;1705118;83;21063;-60
2022/06/08 11:29:56;;;;;;;2.40;0.72;;;;;;;29.97;35.63;99248.30;1719091;82;21000;-62
2022/06/08 11:32:36;;;;;;;0.90;0.50;;;;;;;30.02;34.88;99245.06;1717021;82;21091;-62
2022/06/08 11:35:43;;;;;;;4.28;2.92;;;;;;;29.97;35.02;99241.28;1713095;82;21099;-61
2022/06/08 11:38:40;;;;;;;2.77;1.10;;;;;;;30.10;35.23;99236.78;1688641;85;21042;-61
2022/06/08 11:41:35;;;;;;;3.02;0.75;;;;;;;30.24;35.18;99235.05;1658692;85;21033;-61
2022/06/08 11:44:17;;;;;;;1.57;0.60;;;;;;;30.28;37.05;99238.62;1721874;82;20952;-62
2022/06/08 11:46:53;;;;;;;2.70;0.70;;;;;;;30.43;35.78;99238.70;1712878;82;21619;-61
2022/06/08 11:49:34;;;;;;;1.75;0.70;;;;;;;30.34;35.78;99243.97;1721689;82;21467;-61
2022/06/08 11:52:31;;;;;;;2.92;0.50;;;;;;;30.15;34.95;99245.34;1706869;82;21008;-61
2022/06/08 11:55:20;;;;;;;1.85;0.60;;;;;;;29.88;35.58;99231.75;1710605;82;21155;-61
2022/06/08 11:57:55;;;;;;;2.47;0.65;;;;;;;29.73;36.71;99231.03;1708955;82;21098;-60
2022/06/08 12:00:27;;;;;;;1.75;0.70;;;;;;;29.64;38.05;99231.51;1685533;84;21672;-62
2022/06/08 12:03:19;;;;;;;1.25;0.60;;;;;;;29.58;37.65;99230.95;1669703;84;21938;-60
2022/06/08 12:05:51;;;;;;;3.65;0.80;;;;;;;29.46;37.46;99230.83;1704813;82;21102;-62
2022/06/08 12:08:26;;;;;;;1.32;0.75;;;;;;;29.30;38.57;99225.53;1673730;84;21497;-62
2022/06/08 12:10:53;;;;;;;2.60;0.90;;;;;;;29.22;38.50;99226.14;1725798;81;21037;-61
2022/06/08 12:13:22;;;;;;;2.15;0.70;;;;;;;29.20;38.40;99224.33;1728031;82;21035;-60
2022/06/08 12:15:57;;;;;;;3.72;0.70;;;;;;;29.30;38.64;99227.70;1701063;82;21520;-63
2022/06/08 12:18:38;;;;;;;1.32;0.70;;;;;;;29.33;36.58;99217.70;1713140;82;21055;-61
2022/06/08 12:21:24;;;;;;;1.82;0.60;;;;;;;29.32;35.86;99213.30;1714012;82;21016;-62
2022/06/08 12:24:15;;;;;;;3.40;0.90;;;;;;;29.42;35.95;99218.03;1703426;82;21095;-62
2022/06/08 12:27:14;;;;;;;1.60;0.90;;;;;;;29.54;36.95;99213.36;1676634;84;21049;-63
2022/06/08 12:33:20;;;;;;;;;;;;;;;29.54;38.53;99210.55;1866235;74;23383;-62
2022/06/08 12:36:00;;;;;;;2.30;1.20;;;;;;;29.51;37.62;99201.56;1845166;75;20103;-60
2022/06/08 12:38:28;;;;;;;3.40;1.27;;;;;;;29.44;38.38;99203.02;1821506;77;20970;-63